sensor_id;sensor_type;location;lat;lon;timestamp;P1;durP1;ratioP1;P2;durP2;ratioP2
76604;SDS011;73179;50.978;16.998;2024-01-11T00:00:50;154.88;;;71.53;;
76604;SDS011;73179;50.978;16.998;2024-01-11T00:03:35;152.15;;;68.95;;
76604;SDS011;73179;50.978;16.998;2024-01-11T00:06:02;146.18;;;71.57;;
76604;SDS011;73179;50.978;16.998;2024-01-11T00:08:29;134.35;;;65.95;;
76604;SDS011;73179;50.978;16.998;2024-01-11T00:10:56;228.77;;;94.70;;
76604;SDS011;73179;50.978;16.998;2024-01-11T00:13:22;163.40;;;78.32;;
76604;SDS011;73179;50.978;16.998;2024-01-11T00:15:48;163.85;;;74.25;;
76604;SDS011;73179;50.978;16.998;2024-01-11T00:18:14;135.27;;;73.00;;
76604;SDS011;73179;50.978;16.998;2024-01-11T00:20:40;193.68;;;86.97;;
76604;SDS011;73179;50.978;16.998;2024-01-11T00:23:06;151.40;;;69.25;;
76604;SDS011;73179;50.978;16.998;2024-01-11T00:25:32;148.98;;;71.10;;
76604;SDS011;73179;50.978;16.998;2024-01-11T00:27:58;152.68;;;70.38;;
76604;SDS011;73179;50.978;16.998;2024-01-11T00:30:24;158.00;;;70.80;;
76604;SDS011;73179;50.978;16.998;2024-01-11T00:32:50;131.77;;;65.40;;
76604;SDS011;73179;50.978;16.998;2024-01-11T00:35:16;150.73;;;71.43;;
76604;SDS011;73179;50.978;16.998;2024-01-11T00:37:42;174.98;;;80.80;;
76604;SDS011;73179;50.978;16.998;2024-01-11T00:40:08;185.43;;;79.85;;
76604;SDS011;73179;50.978;16.998;2024-01-11T00:42:35;133.52;;;69.65;;
76604;SDS011;73179;50.978;16.998;2024-01-11T00:45:01;152.02;;;68.47;;
76604;SDS011;73179;50.978;16.998;2024-01-11T00:47:27;139.00;;;67.07;;
76604;SDS011;73179;50.978;16.998;2024-01-11T00:49:53;184.23;;;74.57;;
76604;SDS011;73179;50.978;16.998;2024-01-11T00:52:19;134.90;;;67.72;;
76604;SDS011;73179;50.978;16.998;2024-01-11T00:54:46;141.07;;;70.35;;
76604;SDS011;73179;50.978;16.998;2024-01-11T00:57:11;144.63;;;66.70;;
76604;SDS011;73179;50.978;16.998;2024-01-11T00:59:39;195.13;;;80.68;;
76604;SDS011;73179;50.978;16.998;2024-01-11T01:02:05;184.25;;;73.50;;
76604;SDS011;73179;50.978;16.998;2024-01-11T01:04:31;147.95;;;64.53;;
76604;SDS011;73179;50.978;16.998;2024-01-11T01:06:57;163.98;;;72.13;;
76604;SDS011;73179;50.978;16.998;2024-01-11T01:09:23;124.63;;;62.03;;
76604;SDS011;73179;50.978;16.998;2024-01-11T01:11:49;116.43;;;56.35;;
76604;SDS011;73179;50.978;16.998;2024-01-11T01:14:16;117.07;;;60.88;;
76604;SDS011;73179;50.978;16.998;2024-01-11T01:16:41;124.72;;;66.78;;
76604;SDS011;73179;50.978;16.998;2024-01-11T01:19:08;130.23;;;59.25;;
76604;SDS011;73179;50.978;16.998;2024-01-11T01:21:34;120.30;;;59.15;;
76604;SDS011;73179;50.978;16.998;2024-01-11T01:24:00;142.35;;;67.50;;
76604;SDS011;73179;50.978;16.998;2024-01-11T01:26:26;124.50;;;65.50;;
76604;SDS011;73179;50.978;16.998;2024-01-11T01:28:52;128.40;;;58.42;;
76604;SDS011;73179;50.978;16.998;2024-01-11T01:31:18;125.97;;;61.33;;
76604;SDS011;73179;50.978;16.998;2024-01-11T01:33:44;125.65;;;60.38;;
76604;SDS011;73179;50.978;16.998;2024-01-11T01:36:10;120.93;;;56.90;;
76604;SDS011;73179;50.978;16.998;2024-01-11T01:38:36;116.95;;;60.25;;
76604;SDS011;73179;50.978;16.998;2024-01-11T01:41:03;125.47;;;60.88;;
76604;SDS011;73179;50.978;16.998;2024-01-11T01:43:29;155.45;;;66.60;;
76604;SDS011;73179;50.978;16.998;2024-01-11T01:45:55;140.85;;;70.93;;
76604;SDS011;73179;50.978;16.998;2024-01-11T01:48:22;111.13;;;60.13;;
76604;SDS011;73179;50.978;16.998;2024-01-11T01:50:48;116.75;;;54.53;;
76604;SDS011;73179;50.978;16.998;2024-01-11T01:53:21;112.47;;;56.10;;
76604;SDS011;73179;50.978;16.998;2024-01-11T01:55:48;110.85;;;57.72;;
76604;SDS011;73179;50.978;16.998;2024-01-11T01:58:16;134.40;;;65.40;;
76604;SDS011;73179;50.978;16.998;2024-01-11T02:00:44;139.65;;;64.53;;
76604;SDS011;73179;50.978;16.998;2024-01-11T02:03:11;121.82;;;54.83;;
76604;SDS011;73179;50.978;16.998;2024-01-11T02:05:40;110.38;;;51.45;;
76604;SDS011;73179;50.978;16.998;2024-01-11T02:08:06;113.63;;;58.67;;
76604;SDS011;73179;50.978;16.998;2024-01-11T02:10:34;129.77;;;60.05;;
76604;SDS011;73179;50.978;16.998;2024-01-11T02:13:04;120.97;;;60.97;;
76604;SDS011;73179;50.978;16.998;2024-01-11T02:15:30;119.80;;;60.65;;
76604;SDS011;73179;50.978;16.998;2024-01-11T02:17:56;129.05;;;59.72;;
76604;SDS011;73179;50.978;16.998;2024-01-11T02:20:22;117.22;;;60.30;;
76604;SDS011;73179;50.978;16.998;2024-01-11T02:22:51;113.65;;;58.80;;
76604;SDS011;73179;50.978;16.998;2024-01-11T02:25:22;121.82;;;61.30;;
76604;SDS011;73179;50.978;16.998;2024-01-11T02:27:49;120.32;;;59.08;;
76604;SDS011;73179;50.978;16.998;2024-01-11T02:30:15;126.95;;;64.18;;
76604;SDS011;73179;50.978;16.998;2024-01-11T02:32:43;115.65;;;59.95;;
76604;SDS011;73179;50.978;16.998;2024-01-11T02:35:12;135.00;;;59.95;;
76604;SDS011;73179;50.978;16.998;2024-01-11T02:37:40;136.82;;;61.10;;
76604;SDS011;73179;50.978;16.998;2024-01-11T02:40:07;125.28;;;55.97;;
76604;SDS011;73179;50.978;16.998;2024-01-11T02:42:37;116.75;;;57.90;;
76604;SDS011;73179;50.978;16.998;2024-01-11T02:45:03;114.18;;;56.20;;
76604;SDS011;73179;50.978;16.998;2024-01-11T02:47:30;119.95;;;55.60;;
76604;SDS011;73179;50.978;16.998;2024-01-11T02:49:55;129.55;;;58.65;;
76604;SDS011;73179;50.978;16.998;2024-01-11T02:54:48;103.72;;;56.78;;
76604;SDS011;73179;50.978;16.998;2024-01-11T02:57:15;120.93;;;58.08;;
76604;SDS011;73179;50.978;16.998;2024-01-11T02:59:41;117.78;;;54.13;;
76604;SDS011;73179;50.978;16.998;2024-01-11T03:02:08;117.78;;;53.92;;
76604;SDS011;73179;50.978;16.998;2024-01-11T03:04:34;111.00;;;54.50;;
76604;SDS011;73179;50.978;16.998;2024-01-11T03:07:01;139.25;;;62.38;;
76604;SDS011;73179;50.978;16.998;2024-01-11T03:09:27;109.47;;;51.40;;
76604;SDS011;73179;50.978;16.998;2024-01-11T03:11:53;135.40;;;62.70;;
76604;SDS011;73179;50.978;16.998;2024-01-11T03:14:19;130.35;;;61.20;;
76604;SDS011;73179;50.978;16.998;2024-01-11T03:16:45;123.20;;;59.40;;
76604;SDS011;73179;50.978;16.998;2024-01-11T03:19:11;105.78;;;54.10;;
76604;SDS011;73179;50.978;16.998;2024-01-11T03:21:41;130.27;;;59.88;;
76604;SDS011;73179;50.978;16.998;2024-01-11T03:24:11;127.82;;;55.30;;
76604;SDS011;73179;50.978;16.998;2024-01-11T03:26:37;126.93;;;56.00;;
76604;SDS011;73179;50.978;16.998;2024-01-11T03:29:03;134.88;;;64.93;;
76604;SDS011;73179;50.978;16.998;2024-01-11T03:31:29;146.65;;;61.90;;
76604;SDS011;73179;50.978;16.998;2024-01-11T03:33:55;138.73;;;62.28;;
76604;SDS011;73179;50.978;16.998;2024-01-11T03:36:24;160.90;;;74.18;;
76604;SDS011;73179;50.978;16.998;2024-01-11T03:38:51;133.43;;;61.78;;
76604;SDS011;73179;50.978;16.998;2024-01-11T03:41:17;126.40;;;58.05;;
76604;SDS011;73179;50.978;16.998;2024-01-11T03:43:43;110.72;;;53.95;;
76604;SDS011;73179;50.978;16.998;2024-01-11T03:46:09;96.65;;;54.92;;
76604;SDS011;73179;50.978;16.998;2024-01-11T03:48:35;127.07;;;59.88;;
76604;SDS011;73179;50.978;16.998;2024-01-11T03:51:01;114.18;;;49.17;;
76604;SDS011;73179;50.978;16.998;2024-01-11T03:53:28;105.10;;;52.53;;
76604;SDS011;73179;50.978;16.998;2024-01-11T03:55:54;141.27;;;58.80;;
76604;SDS011;73179;50.978;16.998;2024-01-11T03:58:20;122.40;;;56.10;;
76604;SDS011;73179;50.978;16.998;2024-01-11T04:03:12;118.60;;;56.13;;
76604;SDS011;73179;50.978;16.998;2024-01-11T04:08:05;80.43;;;44.47;;
76604;SDS011;73179;50.978;16.998;2024-01-11T04:10:32;97.18;;;42.90;;
76604;SDS011;73179;50.978;16.998;2024-01-11T04:12:59;102.60;;;51.60;;
76604;SDS011;73179;50.978;16.998;2024-01-11T04:15:25;104.47;;;51.03;;
76604;SDS011;73179;50.978;16.998;2024-01-11T04:17:51;98.18;;;49.40;;
76604;SDS011;73179;50.978;16.998;2024-01-11T04:20:17;123.88;;;58.47;;
76604;SDS011;73179;50.978;16.998;2024-01-11T04:22:43;118.63;;;54.47;;
76604;SDS011;73179;50.978;16.998;2024-01-11T04:25:10;119.40;;;59.17;;
76604;SDS011;73179;50.978;16.998;2024-01-11T04:27:36;111.38;;;50.72;;
76604;SDS011;73179;50.978;16.998;2024-01-11T04:30:02;86.50;;;46.30;;
76604;SDS011;73179;50.978;16.998;2024-01-11T04:32:29;101.75;;;49.15;;
76604;SDS011;73179;50.978;16.998;2024-01-11T04:34:55;114.63;;;54.67;;
76604;SDS011;73179;50.978;16.998;2024-01-11T04:37:21;110.88;;;51.58;;
76604;SDS011;73179;50.978;16.998;2024-01-11T04:39:47;87.88;;;46.78;;
76604;SDS011;73179;50.978;16.998;2024-01-11T04:42:14;113.40;;;52.10;;
76604;SDS011;73179;50.978;16.998;2024-01-11T04:44:40;116.25;;;53.78;;
76604;SDS011;73179;50.978;16.998;2024-01-11T04:47:06;129.23;;;53.42;;
76604;SDS011;73179;50.978;16.998;2024-01-11T04:49:34;132.80;;;62.92;;
76604;SDS011;73179;50.978;16.998;2024-01-11T04:51:59;116.18;;;54.92;;
76604;SDS011;73179;50.978;16.998;2024-01-11T04:54:26;119.68;;;56.28;;
76604;SDS011;73179;50.978;16.998;2024-01-11T04:56:52;96.07;;;42.20;;
76604;SDS011;73179;50.978;16.998;2024-01-11T04:59:18;96.25;;;49.85;;
76604;SDS011;73179;50.978;16.998;2024-01-11T05:01:45;102.47;;;53.33;;
76604;SDS011;73179;50.978;16.998;2024-01-11T05:04:12;127.43;;;56.30;;
76604;SDS011;73179;50.978;16.998;2024-01-11T05:06:37;104.45;;;50.35;;
76604;SDS011;73179;50.978;16.998;2024-01-11T05:09:04;112.35;;;53.97;;
76604;SDS011;73179;50.978;16.998;2024-01-11T05:11:30;113.78;;;49.35;;
76604;SDS011;73179;50.978;16.998;2024-01-11T05:13:56;107.68;;;47.42;;
76604;SDS011;73179;50.978;16.998;2024-01-11T05:18:50;107.38;;;50.83;;
76604;SDS011;73179;50.978;16.998;2024-01-11T05:21:17;132.20;;;57.33;;
76604;SDS011;73179;50.978;16.998;2024-01-11T05:23:43;112.35;;;51.47;;
76604;SDS011;73179;50.978;16.998;2024-01-11T05:26:09;83.90;;;42.92;;
76604;SDS011;73179;50.978;16.998;2024-01-11T05:31:13;96.63;;;47.30;;
76604;SDS011;73179;50.978;16.998;2024-01-11T05:33:41;103.30;;;51.17;;
76604;SDS011;73179;50.978;16.998;2024-01-11T05:36:07;85.72;;;39.25;;
76604;SDS011;73179;50.978;16.998;2024-01-11T05:38:34;88.07;;;41.17;;
76604;SDS011;73179;50.978;16.998;2024-01-11T05:41:00;69.97;;;34.00;;
76604;SDS011;73179;50.978;16.998;2024-01-11T05:43:27;82.93;;;37.83;;
76604;SDS011;73179;50.978;16.998;2024-01-11T05:45:53;74.30;;;36.08;;
76604;SDS011;73179;50.978;16.998;2024-01-11T05:48:20;63.30;;;32.15;;
76604;SDS011;73179;50.978;16.998;2024-01-11T05:50:46;67.45;;;31.67;;
76604;SDS011;73179;50.978;16.998;2024-01-11T05:53:12;61.45;;;31.15;;
76604;SDS011;73179;50.978;16.998;2024-01-11T05:55:41;57.33;;;29.85;;
76604;SDS011;73179;50.978;16.998;2024-01-11T05:58:07;57.65;;;32.65;;
76604;SDS011;73179;50.978;16.998;2024-01-11T06:00:33;61.60;;;31.33;;
76604;SDS011;73179;50.978;16.998;2024-01-11T06:03:00;53.10;;;29.60;;
76604;SDS011;73179;50.978;16.998;2024-01-11T06:05:26;63.65;;;26.48;;
76604;SDS011;73179;50.978;16.998;2024-01-11T06:07:52;53.97;;;25.40;;
76604;SDS011;73179;50.978;16.998;2024-01-11T06:10:18;43.28;;;24.83;;
76604;SDS011;73179;50.978;16.998;2024-01-11T06:12:45;51.78;;;26.15;;
76604;SDS011;73179;50.978;16.998;2024-01-11T06:17:37;39.72;;;20.05;;
76604;SDS011;73179;50.978;16.998;2024-01-11T06:20:03;46.63;;;22.83;;
76604;SDS011;73179;50.978;16.998;2024-01-11T06:22:30;43.80;;;23.48;;
76604;SDS011;73179;50.978;16.998;2024-01-11T06:24:56;38.45;;;18.80;;
76604;SDS011;73179;50.978;16.998;2024-01-11T06:27:23;48.03;;;20.42;;
76604;SDS011;73179;50.978;16.998;2024-01-11T06:29:49;35.67;;;20.17;;
76604;SDS011;73179;50.978;16.998;2024-01-11T06:32:15;42.22;;;20.67;;
76604;SDS011;73179;50.978;16.998;2024-01-11T06:34:41;37.60;;;19.05;;
76604;SDS011;73179;50.978;16.998;2024-01-11T06:37:11;37.63;;;19.15;;
76604;SDS011;73179;50.978;16.998;2024-01-11T06:39:37;37.40;;;17.77;;
76604;SDS011;73179;50.978;16.998;2024-01-11T06:42:04;33.60;;;17.90;;
76604;SDS011;73179;50.978;16.998;2024-01-11T06:46:56;31.52;;;15.55;;
76604;SDS011;73179;50.978;16.998;2024-01-11T06:49:22;33.40;;;16.55;;
76604;SDS011;73179;50.978;16.998;2024-01-11T06:51:49;33.60;;;16.83;;
76604;SDS011;73179;50.978;16.998;2024-01-11T06:54:15;31.85;;;15.57;;
76604;SDS011;73179;50.978;16.998;2024-01-11T06:56:41;31.17;;;16.00;;
76604;SDS011;73179;50.978;16.998;2024-01-11T06:59:07;37.03;;;17.95;;
76604;SDS011;73179;50.978;16.998;2024-01-11T07:01:33;33.22;;;15.75;;
76604;SDS011;73179;50.978;16.998;2024-01-11T07:03:59;26.70;;;12.73;;
76604;SDS011;73179;50.978;16.998;2024-01-11T07:06:25;30.20;;;14.68;;
76604;SDS011;73179;50.978;16.998;2024-01-11T07:08:51;28.42;;;15.02;;
76604;SDS011;73179;50.978;16.998;2024-01-11T07:11:17;26.67;;;12.95;;
76604;SDS011;73179;50.978;16.998;2024-01-11T07:13:43;32.10;;;16.10;;
76604;SDS011;73179;50.978;16.998;2024-01-11T07:16:10;24.02;;;12.40;;
76604;SDS011;73179;50.978;16.998;2024-01-11T07:18:36;27.88;;;12.52;;
76604;SDS011;73179;50.978;16.998;2024-01-11T07:21:02;23.88;;;12.90;;
76604;SDS011;73179;50.978;16.998;2024-01-11T07:23:28;27.25;;;11.95;;
76604;SDS011;73179;50.978;16.998;2024-01-11T07:25:55;23.55;;;12.70;;
76604;SDS011;73179;50.978;16.998;2024-01-11T07:30:51;21.20;;;10.68;;
76604;SDS011;73179;50.978;16.998;2024-01-11T07:33:19;23.60;;;11.82;;
76604;SDS011;73179;50.978;16.998;2024-01-11T07:35:46;21.08;;;10.18;;
76604;SDS011;73179;50.978;16.998;2024-01-11T07:38:13;20.60;;;12.18;;
76604;SDS011;73179;50.978;16.998;2024-01-11T07:40:39;27.85;;;12.43;;
76604;SDS011;73179;50.978;16.998;2024-01-11T07:45:31;20.40;;;11.60;;
76604;SDS011;73179;50.978;16.998;2024-01-11T07:50:23;22.20;;;10.10;;
76604;SDS011;73179;50.978;16.998;2024-01-11T07:55:15;16.60;;;10.15;;
76604;SDS011;73179;50.978;16.998;2024-01-11T07:57:42;17.75;;;9.70;;
76604;SDS011;73179;50.978;16.998;2024-01-11T08:00:08;22.13;;;10.20;;
76604;SDS011;73179;50.978;16.998;2024-01-11T08:02:34;20.17;;;11.27;;
76604;SDS011;73179;50.978;16.998;2024-01-11T08:05:01;19.73;;;9.43;;
76604;SDS011;73179;50.978;16.998;2024-01-11T08:07:27;23.35;;;10.18;;
76604;SDS011;73179;50.978;16.998;2024-01-11T08:09:57;20.85;;;10.70;;
76604;SDS011;73179;50.978;16.998;2024-01-11T08:14:49;18.65;;;9.05;;
76604;SDS011;73179;50.978;16.998;2024-01-11T08:19:41;14.07;;;8.57;;
76604;SDS011;73179;50.978;16.998;2024-01-11T08:22:08;17.33;;;10.70;;
76604;SDS011;73179;50.978;16.998;2024-01-11T08:24:35;20.02;;;9.85;;
76604;SDS011;73179;50.978;16.998;2024-01-11T08:27:01;19.10;;;10.25;;
76604;SDS011;73179;50.978;16.998;2024-01-11T08:29:27;21.17;;;10.10;;
76604;SDS011;73179;50.978;16.998;2024-01-11T08:34:23;20.05;;;9.23;;
76604;SDS011;73179;50.978;16.998;2024-01-11T08:36:51;13.15;;;8.80;;
76604;SDS011;73179;50.978;16.998;2024-01-11T08:39:18;13.95;;;9.23;;
76604;SDS011;73179;50.978;16.998;2024-01-11T08:41:44;21.17;;;9.88;;
76604;SDS011;73179;50.978;16.998;2024-01-11T08:44:10;20.92;;;10.15;;
76604;SDS011;73179;50.978;16.998;2024-01-11T08:49:03;15.02;;;8.60;;
76604;SDS011;73179;50.978;16.998;2024-01-11T08:51:29;16.73;;;9.82;;
76604;SDS011;73179;50.978;16.998;2024-01-11T08:53:56;15.40;;;8.43;;
76604;SDS011;73179;50.978;16.998;2024-01-11T08:56:22;17.15;;;9.68;;
76604;SDS011;73179;50.978;16.998;2024-01-11T08:58:48;17.08;;;9.77;;
76604;SDS011;73179;50.978;16.998;2024-01-11T09:01:14;18.50;;;9.82;;
76604;SDS011;73179;50.978;16.998;2024-01-11T09:03:41;15.45;;;8.95;;
76604;SDS011;73179;50.978;16.998;2024-01-11T09:06:07;15.75;;;8.68;;
76604;SDS011;73179;50.978;16.998;2024-01-11T09:08:33;19.88;;;10.57;;
76604;SDS011;73179;50.978;16.998;2024-01-11T09:10:59;19.27;;;10.35;;
76604;SDS011;73179;50.978;16.998;2024-01-11T09:13:26;19.77;;;10.13;;
76604;SDS011;73179;50.978;16.998;2024-01-11T09:15:53;20.58;;;9.93;;
76604;SDS011;73179;50.978;16.998;2024-01-11T09:18:20;20.95;;;9.68;;
76604;SDS011;73179;50.978;16.998;2024-01-11T09:20:46;17.02;;;9.00;;
76604;SDS011;73179;50.978;16.998;2024-01-11T09:23:13;20.50;;;11.30;;
76604;SDS011;73179;50.978;16.998;2024-01-11T09:25:39;24.80;;;12.30;;
76604;SDS011;73179;50.978;16.998;2024-01-11T09:28:05;19.70;;;11.00;;
76604;SDS011;73179;50.978;16.998;2024-01-11T09:30:32;21.30;;;10.95;;
76604;SDS011;73179;50.978;16.998;2024-01-11T09:32:58;25.65;;;13.60;;
76604;SDS011;73179;50.978;16.998;2024-01-11T09:35:24;23.80;;;12.82;;
76604;SDS011;73179;50.978;16.998;2024-01-11T09:37:51;18.65;;;10.63;;
76604;SDS011;73179;50.978;16.998;2024-01-11T09:40:17;20.60;;;10.38;;
76604;SDS011;73179;50.978;16.998;2024-01-11T09:42:44;21.38;;;10.85;;
76604;SDS011;73179;50.978;16.998;2024-01-11T09:45:14;18.23;;;10.40;;
76604;SDS011;73179;50.978;16.998;2024-01-11T09:47:46;19.83;;;10.80;;
76604;SDS011;73179;50.978;16.998;2024-01-11T09:50:13;17.92;;;11.18;;
76604;SDS011;73179;50.978;16.998;2024-01-11T09:52:46;19.30;;;10.27;;
76604;SDS011;73179;50.978;16.998;2024-01-11T09:55:14;19.50;;;10.20;;
76604;SDS011;73179;50.978;16.998;2024-01-11T09:57:44;20.50;;;10.32;;
76604;SDS011;73179;50.978;16.998;2024-01-11T10:00:18;18.02;;;10.10;;
76604;SDS011;73179;50.978;16.998;2024-01-11T10:02:49;19.30;;;9.95;;
76604;SDS011;73179;50.978;16.998;2024-01-11T10:05:16;20.52;;;9.70;;
76604;SDS011;73179;50.978;16.998;2024-01-11T10:07:43;16.13;;;10.93;;
76604;SDS011;73179;50.978;16.998;2024-01-11T10:10:11;21.30;;;11.55;;
76604;SDS011;73179;50.978;16.998;2024-01-11T10:12:41;19.80;;;11.30;;
76604;SDS011;73179;50.978;16.998;2024-01-11T10:15:08;21.90;;;11.68;;
76604;SDS011;73179;50.978;16.998;2024-01-11T10:17:43;18.92;;;9.95;;
76604;SDS011;73179;50.978;16.998;2024-01-11T10:20:11;20.77;;;10.80;;
76604;SDS011;73179;50.978;16.998;2024-01-11T10:22:42;15.60;;;9.85;;
76604;SDS011;73179;50.978;16.998;2024-01-11T10:27:42;16.52;;;9.80;;
76604;SDS011;73179;50.978;16.998;2024-01-11T10:30:16;16.70;;;9.13;;
76604;SDS011;73179;50.978;16.998;2024-01-11T10:35:09;20.17;;;9.68;;
76604;SDS011;73179;50.978;16.998;2024-01-11T10:37:36;18.08;;;10.40;;
76604;SDS011;73179;50.978;16.998;2024-01-11T10:40:05;21.90;;;10.60;;
76604;SDS011;73179;50.978;16.998;2024-01-11T10:42:41;19.35;;;11.13;;
76604;SDS011;73179;50.978;16.998;2024-01-11T10:47:50;19.92;;;11.43;;
76604;SDS011;73179;50.978;16.998;2024-01-11T10:50:23;21.27;;;11.40;;
76604;SDS011;73179;50.978;16.998;2024-01-11T10:56:08;18.13;;;10.25;;
76604;SDS011;73179;50.978;16.998;2024-01-11T10:58:39;22.02;;;12.23;;
76604;SDS011;73179;50.978;16.998;2024-01-11T11:01:07;20.52;;;9.77;;
76604;SDS011;73179;50.978;16.998;2024-01-11T11:03:36;17.83;;;9.85;;
76604;SDS011;73179;50.978;16.998;2024-01-11T11:06:04;17.85;;;9.50;;
76604;SDS011;73179;50.978;16.998;2024-01-11T11:08:34;16.48;;;10.18;;
76604;SDS011;73179;50.978;16.998;2024-01-11T11:11:03;16.13;;;9.07;;
76604;SDS011;73179;50.978;16.998;2024-01-11T11:13:32;21.05;;;10.05;;
76604;SDS011;73179;50.978;16.998;2024-01-11T11:16:00;17.63;;;9.88;;
76604;SDS011;73179;50.978;16.998;2024-01-11T11:18:28;18.52;;;9.32;;
76604;SDS011;73179;50.978;16.998;2024-01-11T11:20:53;16.77;;;8.48;;
76604;SDS011;73179;50.978;16.998;2024-01-11T11:23:20;12.38;;;7.82;;
76604;SDS011;73179;50.978;16.998;2024-01-11T11:25:46;16.70;;;8.75;;
76604;SDS011;73179;50.978;16.998;2024-01-11T11:28:16;16.77;;;9.68;;
76604;SDS011;73179;50.978;16.998;2024-01-11T11:30:43;21.25;;;9.50;;
76604;SDS011;73179;50.978;16.998;2024-01-11T11:33:11;17.20;;;9.63;;
76604;SDS011;73179;50.978;16.998;2024-01-11T11:35:47;17.02;;;8.40;;
76604;SDS011;73179;50.978;16.998;2024-01-11T11:38:23;14.77;;;7.93;;
76604;SDS011;73179;50.978;16.998;2024-01-11T11:40:51;15.98;;;8.00;;
76604;SDS011;73179;50.978;16.998;2024-01-11T11:43:20;15.57;;;9.10;;
76604;SDS011;73179;50.978;16.998;2024-01-11T11:45:47;19.25;;;10.70;;
76604;SDS011;73179;50.978;16.998;2024-01-11T11:51:15;16.15;;;9.35;;
76604;SDS011;73179;50.978;16.998;2024-01-11T11:53:45;17.90;;;8.60;;
76604;SDS011;73179;50.978;16.998;2024-01-11T11:56:12;19.90;;;10.55;;
76604;SDS011;73179;50.978;16.998;2024-01-11T11:58:40;19.80;;;10.82;;
76604;SDS011;73179;50.978;16.998;2024-01-11T12:01:08;13.73;;;8.30;;
76604;SDS011;73179;50.978;16.998;2024-01-11T12:03:38;19.17;;;11.32;;
76604;SDS011;73179;50.978;16.998;2024-01-11T12:06:07;21.98;;;11.13;;
76604;SDS011;73179;50.978;16.998;2024-01-11T12:08:36;23.13;;;11.52;;
76604;SDS011;73179;50.978;16.998;2024-01-11T12:11:03;18.38;;;11.32;;
76604;SDS011;73179;50.978;16.998;2024-01-11T12:13:31;21.33;;;11.80;;
76604;SDS011;73179;50.978;16.998;2024-01-11T12:15:57;24.15;;;13.20;;
76604;SDS011;73179;50.978;16.998;2024-01-11T12:18:24;32.97;;;14.75;;
76604;SDS011;73179;50.978;16.998;2024-01-11T12:20:49;30.83;;;15.15;;
76604;SDS011;73179;50.978;16.998;2024-01-11T12:23:19;32.00;;;15.73;;
76604;SDS011;73179;50.978;16.998;2024-01-11T12:25:45;30.08;;;15.13;;
76604;SDS011;73179;50.978;16.998;2024-01-11T12:28:11;29.77;;;17.00;;
76604;SDS011;73179;50.978;16.998;2024-01-11T12:30:37;29.77;;;14.98;;
76604;SDS011;73179;50.978;16.998;2024-01-11T12:33:03;29.40;;;16.15;;
76604;SDS011;73179;50.978;16.998;2024-01-11T12:35:31;33.40;;;15.30;;
76604;SDS011;73179;50.978;16.998;2024-01-11T12:38:05;26.00;;;16.02;;
76604;SDS011;73179;50.978;16.998;2024-01-11T12:40:40;32.35;;;17.17;;
76604;SDS011;73179;50.978;16.998;2024-01-11T12:43:07;32.17;;;18.23;;
76604;SDS011;73179;50.978;16.998;2024-01-11T12:45:36;35.10;;;18.70;;
76604;SDS011;73179;50.978;16.998;2024-01-11T12:48:06;38.03;;;17.90;;
76604;SDS011;73179;50.978;16.998;2024-01-11T12:50:34;32.78;;;16.02;;
76604;SDS011;73179;50.978;16.998;2024-01-11T12:53:04;32.70;;;16.75;;
76604;SDS011;73179;50.978;16.998;2024-01-11T12:55:35;27.73;;;14.18;;
76604;SDS011;73179;50.978;16.998;2024-01-11T12:58:08;28.90;;;14.57;;
76604;SDS011;73179;50.978;16.998;2024-01-11T13:00:35;33.55;;;18.17;;
76604;SDS011;73179;50.978;16.998;2024-01-11T13:03:03;34.25;;;18.05;;
76604;SDS011;73179;50.978;16.998;2024-01-11T13:05:30;30.52;;;16.23;;
76604;SDS011;73179;50.978;16.998;2024-01-11T13:08:01;33.42;;;15.32;;
76604;SDS011;73179;50.978;16.998;2024-01-11T13:10:29;28.98;;;14.73;;
76604;SDS011;73179;50.978;16.998;2024-01-11T13:12:56;33.25;;;16.50;;
76604;SDS011;73179;50.978;16.998;2024-01-11T13:15:23;33.42;;;18.20;;
76604;SDS011;73179;50.978;16.998;2024-01-11T13:17:50;29.70;;;18.05;;
76604;SDS011;73179;50.978;16.998;2024-01-11T13:20:16;28.02;;;15.98;;
76604;SDS011;73179;50.978;16.998;2024-01-11T13:22:43;30.20;;;16.25;;
76604;SDS011;73179;50.978;16.998;2024-01-11T13:25:09;36.13;;;16.55;;
76604;SDS011;73179;50.978;16.998;2024-01-11T13:27:35;31.05;;;16.55;;
76604;SDS011;73179;50.978;16.998;2024-01-11T13:30:01;33.13;;;17.00;;
76604;SDS011;73179;50.978;16.998;2024-01-11T13:32:29;32.80;;;16.38;;
76604;SDS011;73179;50.978;16.998;2024-01-11T13:34:55;26.88;;;15.55;;
76604;SDS011;73179;50.978;16.998;2024-01-11T13:37:21;34.05;;;17.73;;
76604;SDS011;73179;50.978;16.998;2024-01-11T13:39:47;35.47;;;17.33;;
76604;SDS011;73179;50.978;16.998;2024-01-11T13:42:14;34.40;;;16.95;;
76604;SDS011;73179;50.978;16.998;2024-01-11T13:44:41;32.30;;;15.82;;
76604;SDS011;73179;50.978;16.998;2024-01-11T13:47:07;27.23;;;16.00;;
76604;SDS011;73179;50.978;16.998;2024-01-11T13:49:33;31.25;;;16.33;;
76604;SDS011;73179;50.978;16.998;2024-01-11T13:52:00;35.85;;;17.02;;
76604;SDS011;73179;50.978;16.998;2024-01-11T13:54:26;30.58;;;17.98;;
76604;SDS011;73179;50.978;16.998;2024-01-11T13:56:53;31.67;;;16.98;;
76604;SDS011;73179;50.978;16.998;2024-01-11T13:59:19;35.75;;;18.52;;
76604;SDS011;73179;50.978;16.998;2024-01-11T14:01:45;32.08;;;14.77;;
76604;SDS011;73179;50.978;16.998;2024-01-11T14:04:12;38.13;;;19.05;;
76604;SDS011;73179;50.978;16.998;2024-01-11T14:06:38;34.63;;;17.98;;
76604;SDS011;73179;50.978;16.998;2024-01-11T14:09:04;38.63;;;19.73;;
76604;SDS011;73179;50.978;16.998;2024-01-11T14:11:35;34.38;;;17.40;;
76604;SDS011;73179;50.978;16.998;2024-01-11T14:14:01;39.00;;;19.92;;
76604;SDS011;73179;50.978;16.998;2024-01-11T14:16:27;36.03;;;17.52;;
76604;SDS011;73179;50.978;16.998;2024-01-11T14:18:53;37.05;;;18.25;;
76604;SDS011;73179;50.978;16.998;2024-01-11T14:21:19;34.45;;;18.00;;
76604;SDS011;73179;50.978;16.998;2024-01-11T14:23:45;33.67;;;20.20;;
76604;SDS011;73179;50.978;16.998;2024-01-11T14:26:11;38.90;;;20.38;;
76604;SDS011;73179;50.978;16.998;2024-01-11T14:28:38;36.80;;;19.13;;
76604;SDS011;73179;50.978;16.998;2024-01-11T14:31:08;37.15;;;20.27;;
76604;SDS011;73179;50.978;16.998;2024-01-11T14:33:34;38.30;;;19.83;;
76604;SDS011;73179;50.978;16.998;2024-01-11T14:36:02;36.55;;;20.45;;
76604;SDS011;73179;50.978;16.998;2024-01-11T14:38:28;41.97;;;21.10;;
76604;SDS011;73179;50.978;16.998;2024-01-11T14:40:54;40.03;;;21.25;;
76604;SDS011;73179;50.978;16.998;2024-01-11T14:43:22;35.95;;;17.42;;
76604;SDS011;73179;50.978;16.998;2024-01-11T14:45:49;37.38;;;19.73;;
76604;SDS011;73179;50.978;16.998;2024-01-11T14:48:16;44.70;;;21.73;;
76604;SDS011;73179;50.978;16.998;2024-01-11T14:50:43;41.45;;;20.63;;
76604;SDS011;73179;50.978;16.998;2024-01-11T14:53:09;43.13;;;18.88;;
76604;SDS011;73179;50.978;16.998;2024-01-11T14:55:38;40.03;;;19.45;;